createdAt,value
2018-12-10T00:00:02.051Z,6.54
2018-12-10T00:01:54.951Z,6.54
2018-12-10T00:02:54.958Z,6.54
2018-12-10T00:04:48.845Z,6.48
2018-12-10T00:05:48.861Z,6.46
2018-12-10T00:07:41.759Z,6.51
2018-12-10T00:08:41.765Z,6.58
2018-12-10T00:10:41.399Z,6.49
2018-12-10T00:11:34.671Z,6.49
2018-12-10T00:13:27.570Z,6.52
2018-12-10T00:14:27.573Z,6.58
2018-12-10T00:16:20.476Z,6.67
2018-12-10T00:17:20.481Z,6.62
2018-12-10T00:19:13.868Z,6.58
2018-12-10T00:20:13.880Z,6.55
2018-12-10T00:22:06.781Z,6.56
2018-12-10T00:23:06.786Z,6.55
2018-12-10T00:25:00.240Z,6.56
2018-12-10T00:26:00.187Z,6.66
2018-12-10T00:27:53.087Z,6.69
2018-12-10T00:28:53.091Z,6.66
2018-12-10T00:30:45.983Z,6.64
2018-12-10T00:31:45.996Z,6.69
2018-12-10T00:33:38.899Z,6.70
2018-12-10T00:34:38.903Z,6.67
2018-12-10T00:36:31.812Z,6.61
2018-12-10T00:37:31.811Z,6.66
2018-12-10T00:39:24.706Z,6.54
2018-12-10T00:40:24.718Z,6.44
2018-12-10T00:42:17.622Z,6.49
2018-12-10T00:43:17.625Z,6.38
2018-12-10T00:45:10.521Z,6.49
2018-12-10T00:46:10.532Z,6.46
2018-12-10T00:48:03.928Z,6.43
2018-12-10T00:49:03.932Z,6.46
2018-12-10T00:50:56.824Z,6.30
2018-12-10T00:51:56.835Z,6.36
2018-12-10T00:53:49.742Z,6.37
2018-12-10T00:54:49.742Z,6.33
2018-12-10T00:56:42.642Z,6.25
2018-12-10T00:57:42.648Z,6.25
2018-12-10T00:59:35.540Z,6.17
2018-12-10T01:00:35.551Z,6.25
2018-12-10T01:02:28.452Z,6.31
2018-12-10T01:03:28.453Z,6.18
2018-12-10T01:05:21.345Z,6.14
2018-12-10T01:06:21.359Z,6.09
2018-12-10T01:08:14.262Z,6.09
2018-12-10T01:09:14.266Z,6.18
2018-12-10T01:11:07.161Z,6.14
2018-12-10T01:12:07.169Z,6.11
2018-12-10T01:14:00.066Z,6.03
2018-12-10T01:15:00.072Z,6.03
2018-12-10T01:16:53.466Z,6.14
2018-12-10T01:17:53.471Z,6.08
2018-12-10T01:19:46.364Z,6.06
2018-12-10T01:20:46.376Z,6.09
2018-12-10T01:22:39.278Z,6.18
2018-12-10T01:23:39.284Z,6.14
2018-12-10T01:25:32.175Z,6.18
2018-12-10T01:26:32.186Z,6.09
2018-12-10T01:28:25.089Z,6.18
2018-12-10T01:29:25.091Z,6.18
2018-12-10T01:31:17.986Z,6.17
2018-12-10T01:32:17.996Z,6.18
2018-12-10T01:34:10.897Z,6.15
2018-12-10T01:35:10.899Z,6.17
2018-12-10T01:37:03.800Z,6.19
2018-12-10T01:38:03.805Z,6.18
2018-12-10T01:39:56.698Z,6.14
2018-12-10T01:40:56.709Z,6.14
2018-12-10T01:42:49.609Z,6.22
2018-12-10T01:43:49.621Z,6.21
2018-12-10T01:45:42.999Z,6.09
2018-12-10T01:46:43.117Z,6.17
2018-12-10T01:48:35.925Z,6.21
2018-12-10T01:49:35.931Z,6.15
2018-12-10T01:51:29.316Z,6.25
2018-12-10T01:52:29.331Z,6.15
2018-12-10T01:54:22.231Z,6.17
2018-12-10T01:55:22.238Z,6.22
2018-12-10T01:57:15.139Z,6.25
2018-12-10T01:58:15.142Z,6.22
2018-12-10T02:00:08.035Z,6.21
2018-12-10T02:01:08.046Z,6.19
2018-12-10T02:03:00.947Z,6.27
2018-12-10T02:04:00.956Z,6.21
2018-12-10T02:05:53.844Z,6.17
2018-12-10T02:06:53.856Z,6.18
2018-12-10T02:08:47.251Z,6.17
2018-12-10T02:09:47.256Z,6.22
2018-12-10T02:11:40.150Z,6.25
2018-12-10T02:12:40.163Z,6.18
2018-12-10T02:14:33.066Z,6.21
2018-12-10T02:15:33.065Z,6.09
2018-12-10T02:17:25.967Z,6.14
2018-12-10T02:18:25.972Z,6.15
2018-12-10T02:20:18.869Z,6.18
2018-12-10T02:21:18.877Z,6.09
2018-12-10T02:23:11.777Z,6.01
2018-12-10T02:24:11.783Z,5.97
2018-12-10T02:26:04.675Z,5.99
2018-12-10T02:27:04.686Z,5.94
2018-12-10T02:28:57.592Z,5.94
2018-12-10T02:29:57.589Z,5.91
2018-12-10T02:31:50.482Z,5.85
2018-12-10T02:32:50.590Z,5.82
2018-12-10T02:34:43.466Z,5.91
2018-12-10T02:35:43.402Z,5.91
2018-12-10T02:37:36.792Z,5.94
2018-12-10T02:38:36.796Z,5.90
2018-12-10T02:40:29.694Z,5.97
2018-12-10T02:41:29.703Z,5.90
2018-12-10T02:43:22.602Z,5.96
2018-12-10T02:44:22.607Z,5.94
2018-12-10T02:46:15.503Z,5.86
2018-12-10T02:47:15.512Z,5.96
2018-12-10T02:49:08.413Z,5.89
2018-12-10T02:50:08.417Z,5.86
2018-12-10T02:52:01.899Z,5.91
2018-12-10T02:53:01.322Z,5.79
2018-12-10T02:54:54.224Z,5.85
2018-12-10T02:55:54.224Z,5.86
2018-12-10T02:57:47.258Z,5.81
2018-12-10T02:58:47.258Z,5.83
2018-12-10T03:00:40.151Z,5.86
2018-12-10T03:01:40.165Z,5.90
2018-12-10T03:03:33.063Z,5.86
2018-12-10T03:04:33.066Z,5.85
2018-12-10T03:06:25.960Z,5.83
2018-12-10T03:07:25.972Z,5.96
2018-12-10T03:09:18.874Z,5.91
2018-12-10T03:10:18.872Z,5.94
2018-12-10T03:12:11.766Z,5.99
2018-12-10T03:13:11.776Z,6.00
2018-12-10T03:15:04.689Z,6.01
2018-12-10T03:16:04.681Z,5.99
2018-12-10T03:17:57.581Z,6.01
2018-12-10T03:18:57.586Z,5.99
2018-12-10T03:20:52.745Z,6.03
2018-12-10T03:21:50.492Z,5.90
2018-12-10T03:23:43.392Z,5.91
2018-12-10T03:24:43.395Z,5.82
2018-12-10T03:26:36.294Z,5.78
2018-12-10T03:27:36.300Z,5.81
2018-12-10T03:29:29.194Z,5.82
2018-12-10T03:30:29.202Z,5.76
2018-12-10T03:32:22.093Z,5.76
2018-12-10T03:33:22.115Z,5.72
2018-12-10T03:35:15.004Z,5.71
2018-12-10T03:36:15.011Z,5.78
2018-12-10T03:38:07.911Z,5.72
2018-12-10T03:39:07.913Z,5.71
2018-12-10T03:41:00.806Z,5.67
2018-12-10T03:42:00.817Z,5.68
2018-12-10T03:43:53.719Z,5.63
2018-12-10T03:44:53.722Z,5.61
2018-12-10T03:46:46.615Z,5.60
2018-12-10T03:47:46.629Z,5.57
2018-12-10T03:49:39.532Z,5.61
2018-12-10T03:50:39.535Z,5.51
2018-12-10T03:52:32.424Z,5.61
2018-12-10T03:53:32.437Z,5.48
2018-12-10T03:55:25.334Z,5.51
2018-12-10T03:56:25.337Z,5.57
2018-12-10T03:58:18.238Z,5.60
2018-12-10T03:59:18.243Z,5.57
2018-12-10T04:01:11.142Z,5.57
2018-12-10T04:02:11.258Z,5.46
2018-12-10T04:04:04.048Z,5.43
2018-12-10T04:05:04.052Z,5.49
2018-12-10T04:06:57.434Z,5.45
2018-12-10T04:07:57.449Z,5.40
2018-12-10T04:09:50.840Z,5.49
2018-12-10T04:10:50.847Z,5.53
2018-12-10T04:12:43.743Z,5.42
2018-12-10T04:13:43.751Z,5.42
2018-12-10T04:15:36.652Z,5.46
2018-12-10T04:16:36.658Z,5.43
2018-12-10T04:18:29.564Z,5.40
2018-12-10T04:19:29.562Z,5.40
2018-12-10T04:21:22.451Z,5.45
2018-12-10T04:22:22.464Z,5.40
2018-12-10T04:24:15.363Z,5.42
2018-12-10T04:25:15.368Z,5.43
2018-12-10T04:27:08.256Z,5.42
2018-12-10T04:28:08.268Z,5.40
2018-12-10T04:30:01.169Z,5.31
2018-12-10T04:31:01.175Z,5.28
2018-12-10T04:32:54.067Z,5.38
2018-12-10T04:33:54.077Z,5.31
2018-12-10T04:35:46.976Z,5.25
2018-12-10T04:36:46.977Z,5.35
2018-12-10T04:38:39.879Z,5.24
2018-12-10T04:39:40.064Z,5.22
2018-12-10T04:41:32.771Z,5.22
2018-12-10T04:42:32.781Z,5.30
2018-12-10T04:44:25.683Z,5.33
2018-12-10T04:45:25.697Z,5.27
2018-12-10T04:47:18.582Z,5.17
2018-12-10T04:48:18.591Z,5.20
2018-12-10T04:50:11.490Z,5.13
2018-12-10T04:51:11.495Z,5.20
2018-12-10T04:53:04.387Z,5.22
2018-12-10T04:54:04.397Z,5.15
2018-12-10T04:55:57.296Z,5.18
2018-12-10T04:56:57.297Z,5.20
2018-12-10T04:58:50.198Z,5.15
2018-12-10T04:59:52.812Z,5.17
2018-12-10T05:01:43.625Z,5.15
2018-12-10T05:02:43.637Z,5.15
2018-12-10T05:04:36.538Z,5.13
2018-12-10T05:05:36.539Z,5.18
2018-12-10T05:07:29.430Z,5.12
2018-12-10T05:08:29.441Z,5.13
2018-12-10T05:10:22.340Z,5.10
2018-12-10T05:11:22.343Z,5.09
2018-12-10T05:13:15.237Z,5.10
2018-12-10T05:14:15.250Z,5.13
2018-12-10T05:16:09.290Z,5.20
2018-12-10T05:17:08.646Z,5.17
2018-12-10T05:19:01.544Z,5.24
2018-12-10T05:20:01.550Z,5.27
2018-12-10T05:21:54.441Z,5.30
2018-12-10T05:22:54.450Z,5.21
2018-12-10T05:24:47.353Z,5.22
2018-12-10T05:25:47.358Z,5.22
2018-12-10T05:27:40.247Z,5.17
2018-12-10T05:28:40.257Z,5.28
2018-12-10T05:30:33.170Z,5.38
2018-12-10T05:31:33.172Z,5.24
2018-12-10T05:33:26.557Z,5.28
2018-12-10T05:34:26.570Z,5.30
2018-12-10T05:36:19.505Z,5.31
2018-12-10T05:37:19.515Z,5.31
2018-12-10T05:39:12.470Z,5.31
2018-12-10T05:40:12.387Z,5.21
2018-12-10T05:42:05.288Z,5.30
2018-12-10T05:43:05.300Z,5.15
2018-12-10T05:44:58.312Z,5.17
2018-12-10T05:45:58.206Z,5.13
2018-12-10T05:47:51.095Z,5.10
2018-12-10T05:48:51.174Z,5.18
2018-12-10T05:50:44.008Z,5.13
2018-12-10T05:51:44.011Z,5.13
2018-12-10T05:53:36.900Z,5.21
2018-12-10T05:54:36.911Z,5.17
2018-12-10T05:56:30.304Z,5.12
2018-12-10T05:57:30.309Z,5.15
2018-12-10T05:59:23.209Z,5.17
2018-12-10T06:00:23.211Z,5.21
2018-12-10T06:02:16.122Z,5.21
2018-12-10T06:03:16.137Z,5.18
2018-12-10T06:05:09.035Z,5.18
2018-12-10T06:06:09.038Z,5.21
2018-12-10T06:08:01.928Z,5.17
2018-12-10T06:09:01.939Z,5.21
2018-12-10T06:10:54.842Z,5.21
2018-12-10T06:11:54.843Z,5.13
2018-12-10T06:13:47.735Z,5.24
2018-12-10T06:14:47.746Z,5.27
2018-12-10T06:16:40.650Z,5.30
2018-12-10T06:17:40.650Z,5.24
2018-12-10T06:19:33.550Z,5.17
2018-12-10T06:20:33.551Z,5.13
2018-12-10T06:22:26.443Z,5.22
2018-12-10T06:23:26.455Z,5.24
2018-12-10T06:25:19.369Z,5.28
2018-12-10T06:26:19.362Z,5.35
2018-12-10T06:28:12.247Z,5.35
2018-12-10T06:29:12.259Z,5.40
2018-12-10T06:31:05.162Z,5.33
2018-12-10T06:32:05.165Z,5.45
2018-12-10T06:33:58.056Z,5.36
2018-12-10T06:34:58.065Z,5.36
2018-12-10T06:36:51.459Z,5.31
2018-12-10T06:37:51.463Z,5.33
2018-12-10T06:39:44.364Z,5.35
2018-12-10T06:40:44.367Z,5.33
2018-12-10T06:42:37.260Z,5.33
2018-12-10T06:43:37.273Z,5.38
2018-12-10T06:45:30.170Z,5.45
2018-12-10T06:46:30.173Z,5.36
2018-12-10T06:48:23.064Z,5.27
2018-12-10T06:49:23.075Z,5.33
2018-12-10T06:51:15.974Z,5.33
2018-12-10T06:52:15.978Z,5.33
2018-12-10T06:54:08.872Z,5.24
2018-12-10T06:55:08.884Z,5.22
2018-12-10T06:57:01.780Z,5.27
2018-12-10T06:58:01.783Z,5.35
2018-12-10T06:59:54.682Z,5.24
2018-12-10T07:00:54.684Z,5.33
2018-12-10T07:02:47.577Z,5.22
2018-12-10T07:03:47.588Z,5.39
2018-12-10T07:05:40.488Z,5.31
2018-12-10T07:06:40.491Z,5.27
2018-12-10T07:08:33.387Z,5.12
2018-12-10T07:09:33.400Z,5.21
2018-12-10T07:11:26.298Z,5.22
2018-12-10T07:12:26.302Z,5.27
2018-12-10T07:14:19.194Z,5.21
2018-12-10T07:15:19.206Z,5.21
2018-12-10T07:17:12.108Z,5.15
2018-12-10T07:18:12.108Z,5.17
2018-12-10T07:20:05.016Z,5.24
2018-12-10T07:21:05.050Z,5.17
2018-12-10T07:22:57.909Z,5.21
2018-12-10T07:23:57.919Z,5.21
2018-12-10T07:25:51.812Z,5.21
2018-12-10T07:26:51.818Z,5.25
2018-12-10T07:28:45.201Z,5.21
2018-12-10T07:29:45.215Z,5.22
2018-12-10T07:31:38.114Z,5.18
2018-12-10T07:32:38.120Z,5.25
2018-12-10T07:34:31.010Z,5.18
2018-12-10T07:35:31.023Z,5.24
2018-12-10T07:37:23.922Z,5.21
2018-12-10T07:38:23.924Z,5.20
2018-12-10T07:40:16.827Z,5.21
2018-12-10T07:41:16.826Z,5.18
2018-12-10T07:43:09.718Z,5.09
2018-12-10T07:44:09.728Z,5.13
2018-12-10T07:46:02.628Z,5.15
2018-12-10T07:47:02.631Z,5.20
2018-12-10T07:48:55.522Z,5.20
2018-12-10T07:49:55.533Z,5.15
2018-12-10T07:51:48.435Z,5.17
2018-12-10T07:52:48.437Z,5.17
2018-12-10T07:54:41.825Z,5.20
2018-12-10T07:55:41.832Z,5.15
2018-12-10T07:57:34.746Z,5.18
2018-12-10T07:58:34.750Z,5.07
2018-12-10T08:00:28.142Z,5.04
2018-12-10T08:01:28.145Z,5.09
2018-12-10T08:03:21.039Z,5.07
2018-12-10T08:04:21.050Z,5.07
2018-12-10T08:06:13.949Z,5.09
2018-12-10T08:07:13.953Z,5.13
2018-12-10T08:09:06.923Z,5.25
2018-12-10T08:10:06.858Z,5.30
2018-12-10T08:11:59.758Z,5.27
2018-12-10T08:12:59.760Z,5.39
2018-12-10T08:14:52.653Z,5.40
2018-12-10T08:15:52.664Z,5.40
2018-12-10T08:17:45.564Z,5.58
2018-12-10T08:18:45.569Z,5.57
2018-12-10T08:20:38.467Z,5.65
2018-12-10T08:21:38.471Z,5.60
2018-12-10T08:23:31.513Z,5.71
2018-12-10T08:24:31.376Z,5.64
2018-12-10T08:26:24.280Z,5.63
2018-12-10T08:27:24.280Z,5.56
2018-12-10T08:29:17.174Z,5.51
2018-12-10T08:30:17.186Z,5.57
2018-12-10T08:32:10.086Z,5.46
2018-12-10T08:33:10.088Z,5.60
2018-12-10T08:35:02.981Z,5.51
2018-12-10T08:36:02.993Z,5.48
2018-12-10T08:37:55.912Z,5.56
2018-12-10T08:38:55.895Z,5.60
2018-12-10T08:40:49.291Z,5.63
2018-12-10T08:41:49.300Z,5.63
2018-12-10T08:43:42.188Z,5.71
2018-12-10T08:44:42.201Z,5.75
2018-12-10T08:46:35.100Z,5.85
2018-12-10T08:47:35.104Z,5.91
2018-12-10T08:49:27.996Z,5.93
2018-12-10T08:50:28.010Z,5.96
2018-12-10T08:52:20.910Z,5.91
2018-12-10T08:53:20.914Z,5.91
2018-12-10T08:55:13.806Z,5.93
2018-12-10T08:56:13.820Z,5.91
2018-12-10T08:58:06.720Z,5.96
2018-12-10T08:59:06.725Z,5.89
2018-12-10T09:00:59.623Z,5.81
2018-12-10T09:01:59.630Z,5.76
2018-12-10T09:03:52.526Z,5.81
2018-12-10T09:04:52.535Z,5.78
2018-12-10T09:06:45.434Z,5.82
2018-12-10T09:07:45.440Z,5.86
2018-12-10T09:09:38.331Z,5.90
2018-12-10T09:10:38.344Z,5.83
2018-12-10T09:12:31.247Z,5.91
2018-12-10T09:13:31.248Z,5.96
2018-12-10T09:15:24.143Z,6.18
2018-12-10T09:16:24.156Z,6.06
2018-12-10T09:18:17.056Z,6.17
2018-12-10T09:19:17.064Z,6.25
2018-12-10T09:21:09.960Z,6.33
2018-12-10T09:22:09.962Z,6.44
2018-12-10T09:24:02.857Z,6.36
2018-12-10T09:25:02.869Z,6.34
2018-12-10T09:26:55.773Z,6.31
2018-12-10T09:27:55.779Z,6.25
2018-12-10T09:29:48.670Z,6.15
2018-12-10T09:30:48.685Z,6.12
2018-12-10T09:32:41.585Z,6.19
2018-12-10T09:33:41.591Z,6.17
2018-12-10T09:35:34.485Z,6.08
2018-12-10T09:36:34.496Z,6.12
2018-12-10T09:38:27.398Z,6.18
2018-12-10T09:39:27.399Z,6.14
2018-12-10T09:41:20.306Z,6.25
2018-12-10T09:42:20.308Z,6.15
2018-12-10T09:44:13.204Z,5.96
2018-12-10T09:45:13.215Z,5.93
2018-12-10T09:47:06.122Z,5.85
2018-12-10T09:48:06.122Z,5.83
2018-12-10T09:49:59.015Z,5.93
2018-12-10T09:50:59.029Z,5.82
2018-12-10T09:52:51.927Z,5.94
2018-12-10T09:53:51.933Z,5.94
2018-12-10T09:55:44.825Z,6.01
2018-12-10T09:56:44.836Z,5.97
2018-12-10T09:58:37.738Z,6.01
2018-12-10T09:59:37.742Z,6.08
2018-12-10T10:01:30.649Z,6.19
2018-12-10T10:02:30.655Z,6.33
2018-12-10T10:04:23.542Z,6.38
2018-12-10T10:05:23.556Z,6.46
2018-12-10T10:07:16.457Z,6.48
2018-12-10T10:08:16.462Z,6.52
2018-12-10T10:10:09.355Z,6.62
2018-12-10T10:11:09.366Z,6.70
2018-12-10T10:13:02.269Z,6.67
2018-12-10T10:14:02.272Z,6.62
2018-12-10T10:15:55.167Z,6.69
2018-12-10T10:16:55.179Z,6.77
2018-12-10T10:18:48.081Z,6.95
2018-12-10T10:19:48.085Z,6.94
2018-12-10T10:21:40.986Z,7.06
2018-12-10T10:22:40.990Z,7.09
2018-12-10T10:24:33.886Z,7.13
2018-12-10T10:25:33.901Z,7.10
2018-12-10T10:27:26.804Z,7.16
2018-12-10T10:28:26.805Z,7.15
2018-12-10T10:30:19.703Z,7.15
2018-12-10T10:31:19.715Z,7.13
2018-12-10T10:33:12.615Z,7.17
2018-12-10T10:34:12.620Z,7.16
2018-12-10T10:36:05.518Z,7.09
2018-12-10T10:37:05.528Z,7.12
2018-12-10T10:38:58.431Z,7.16
2018-12-10T10:39:58.437Z,7.10
2018-12-10T10:41:51.342Z,7.06
2018-12-10T10:42:51.346Z,7.03
2018-12-10T10:44:44.242Z,6.98
2018-12-10T10:45:44.253Z,6.95
2018-12-10T10:47:37.158Z,7.05
2018-12-10T10:48:37.163Z,7.10
2018-12-10T10:50:30.065Z,7.06
2018-12-10T10:51:30.073Z,7.05
2018-12-10T10:53:22.976Z,7.07
2018-12-10T10:54:22.982Z,7.07
2018-12-10T10:56:15.874Z,7.05
2018-12-10T10:57:15.888Z,7.05
2018-12-10T10:59:08.790Z,7.09
2018-12-10T11:00:08.795Z,6.95
2018-12-10T11:02:01.697Z,6.99
2018-12-10T11:03:01.701Z,7.10
2018-12-10T11:04:55.789Z,7.10
2018-12-10T11:05:55.802Z,7.15
2018-12-10T11:07:48.710Z,7.15
2018-12-10T11:08:48.710Z,7.15
2018-12-10T11:10:41.608Z,7.09
2018-12-10T11:11:41.623Z,7.06
2018-12-10T11:13:34.525Z,6.97
2018-12-10T11:14:34.528Z,6.94
2018-12-10T11:16:27.425Z,6.94
2018-12-10T11:17:27.437Z,6.94
2018-12-10T11:19:20.336Z,6.94
2018-12-10T11:20:20.342Z,6.92
2018-12-10T11:22:13.252Z,6.95
2018-12-10T11:23:13.253Z,6.91
2018-12-10T11:25:06.157Z,7.07
2018-12-10T11:26:06.158Z,7.15
2018-12-10T11:27:59.061Z,7.06
2018-12-10T11:28:59.066Z,7.13
2018-12-10T11:30:51.956Z,7.13
2018-12-10T11:31:51.972Z,7.12
2018-12-10T11:33:44.871Z,7.13
2018-12-10T11:34:44.878Z,7.13
2018-12-10T11:36:37.771Z,7.23
2018-12-10T11:37:37.785Z,7.23
2018-12-10T11:39:30.685Z,7.32
2018-12-10T11:40:30.690Z,7.40
2018-12-10T11:42:23.594Z,7.43
2018-12-10T11:43:23.599Z,7.43
2018-12-10T11:45:16.493Z,7.53
2018-12-10T11:46:16.511Z,7.53
2018-12-10T11:48:09.410Z,7.52
2018-12-10T11:49:09.414Z,7.46
2018-12-10T11:51:02.311Z,7.48
2018-12-10T11:52:02.324Z,7.50
2018-12-10T11:53:55.229Z,7.55
2018-12-10T11:54:55.233Z,7.52
2018-12-10T11:56:48.126Z,7.42
2018-12-10T11:57:48.150Z,7.40
2018-12-10T11:59:41.045Z,7.42
2018-12-10T12:00:41.046Z,7.42
2018-12-10T12:02:33.950Z,7.49
2018-12-10T12:03:33.955Z,7.52
2018-12-10T12:05:26.848Z,7.48
2018-12-10T12:06:26.860Z,7.50
2018-12-10T12:08:19.764Z,7.42
2018-12-10T12:09:19.771Z,7.37
2018-12-10T12:11:12.666Z,7.32
2018-12-10T12:12:12.679Z,7.34
2018-12-10T12:14:05.584Z,7.24
2018-12-10T12:15:05.585Z,7.25
2018-12-10T12:16:58.482Z,7.17
2018-12-10T12:17:58.497Z,7.23
2018-12-10T12:19:51.584Z,7.15
2018-12-10T12:20:51.405Z,7.12
2018-12-10T12:22:44.303Z,7.35
2018-12-10T12:23:44.305Z,7.35
2018-12-10T12:25:37.205Z,7.31
2018-12-10T12:26:37.214Z,7.34
2018-12-10T12:28:30.119Z,7.49
2018-12-10T12:29:30.128Z,7.50
2018-12-10T12:31:23.019Z,7.50
2018-12-10T12:32:23.030Z,7.61
2018-12-10T12:34:15.933Z,7.71
2018-12-10T12:35:15.937Z,7.82
2018-12-10T12:37:08.832Z,7.92
2018-12-10T12:38:08.847Z,7.98
2018-12-10T12:40:02.244Z,7.97
2018-12-10T12:41:02.246Z,7.98
2018-12-10T12:42:55.152Z,7.79
2018-12-10T12:43:55.158Z,7.75
2018-12-10T12:45:48.056Z,7.80
2018-12-10T12:46:48.066Z,7.77
2018-12-10T12:48:40.971Z,7.74
2018-12-10T12:49:41.062Z,7.68
2018-12-10T12:51:33.874Z,7.77
2018-12-10T12:52:33.885Z,7.79
2018-12-10T12:54:26.790Z,7.61
2018-12-10T12:55:26.799Z,7.74
2018-12-10T12:57:19.693Z,7.68
2018-12-10T12:58:19.707Z,7.71
2018-12-10T13:00:12.608Z,7.64
2018-12-10T13:01:12.613Z,7.58
2018-12-10T13:03:05.520Z,7.50
2018-12-10T13:04:05.522Z,7.52
2018-12-10T13:06:06.617Z,7.43
2018-12-10T13:06:58.429Z,7.42
2018-12-10T13:08:51.331Z,7.27
2018-12-10T13:09:51.335Z,7.12
2018-12-10T13:11:44.232Z,7.21
2018-12-10T13:12:44.244Z,7.20
2018-12-10T13:14:37.149Z,7.15
2018-12-10T13:15:37.156Z,7.09
2018-12-10T13:17:30.051Z,7.13
2018-12-10T13:18:30.063Z,7.13
2018-12-10T13:20:22.965Z,7.13
2018-12-10T13:21:22.971Z,7.17
2018-12-10T13:23:15.873Z,7.13
2018-12-10T13:24:15.878Z,7.15
2018-12-10T13:26:09.270Z,7.12
2018-12-10T13:27:09.282Z,7.10
2018-12-10T13:29:02.327Z,6.91
2018-12-10T13:30:02.185Z,6.95
2018-12-10T13:31:55.079Z,6.70
2018-12-10T13:32:55.091Z,6.76
2018-12-10T13:34:47.991Z,6.49
2018-12-10T13:35:48.001Z,6.38
2018-12-10T13:37:45.607Z,6.33
2018-12-10T13:38:40.905Z,6.01
2018-12-10T13:40:33.808Z,5.90
2018-12-10T13:41:33.809Z,5.85
2018-12-10T13:43:26.713Z,5.63
2018-12-10T13:44:26.714Z,5.60
2018-12-10T13:46:19.609Z,5.38
2018-12-10T13:47:19.622Z,5.17
2018-12-10T13:49:12.520Z,5.17
2018-12-10T13:50:12.525Z,5.20
2018-12-10T13:52:09.079Z,5.09
2018-12-10T13:53:05.432Z,5.09
2018-12-10T13:54:58.331Z,5.10
2018-12-10T13:55:58.336Z,5.12
2018-12-10T13:57:51.720Z,5.09
2018-12-10T13:58:51.733Z,5.07
2018-12-10T14:00:44.634Z,4.99
2018-12-10T14:01:44.638Z,4.88
2018-12-10T14:03:37.535Z,4.99
2018-12-10T14:04:37.540Z,4.91
2018-12-10T14:06:30.432Z,5.00
2018-12-10T14:07:30.443Z,4.88
2018-12-10T14:09:23.344Z,4.89
2018-12-10T14:10:23.348Z,4.89
2018-12-10T14:12:16.245Z,4.88
2018-12-10T14:13:16.250Z,4.82
2018-12-10T14:15:09.153Z,4.84
2018-12-10T14:16:09.156Z,4.89
2018-12-10T14:18:02.048Z,4.91
2018-12-10T14:19:02.054Z,4.91
2018-12-10T14:20:54.991Z,4.97
2018-12-10T14:21:54.994Z,5.00
2018-12-10T14:23:47.940Z,5.03
2018-12-10T14:24:47.896Z,4.99
2018-12-10T14:26:40.792Z,5.07
2018-12-10T14:27:40.805Z,5.10
2018-12-10T14:29:33.705Z,5.04
2018-12-10T14:30:33.901Z,5.06
2018-12-10T14:32:26.601Z,5.07
2018-12-10T14:33:26.612Z,5.07
2018-12-10T14:35:19.512Z,5.06
2018-12-10T14:36:19.517Z,5.07
2018-12-10T14:38:12.408Z,5.07
2018-12-10T14:39:12.420Z,5.06
2018-12-10T14:41:05.323Z,4.99
2018-12-10T14:42:05.326Z,4.99
2018-12-10T14:43:58.223Z,5.03
2018-12-10T14:44:58.225Z,4.92
2018-12-10T14:46:51.116Z,4.99
2018-12-10T14:47:51.132Z,5.03
2018-12-10T14:49:44.027Z,5.00
2018-12-10T14:50:44.029Z,5.12
2018-12-10T14:52:36.925Z,4.97
2018-12-10T14:53:36.932Z,4.99
2018-12-10T14:55:29.833Z,5.03
2018-12-10T14:56:29.836Z,4.97
2018-12-10T14:58:22.742Z,4.96
2018-12-10T14:59:22.753Z,4.99
2018-12-10T15:01:15.659Z,4.99
2018-12-10T15:02:15.654Z,5.04
2018-12-10T15:04:08.557Z,5.10
2018-12-10T15:05:08.557Z,5.09
2018-12-10T15:07:01.453Z,4.99
2018-12-10T15:08:01.526Z,5.07
2018-12-10T15:09:54.360Z,5.10
2018-12-10T15:10:54.367Z,5.06
2018-12-10T15:12:47.255Z,5.13
2018-12-10T15:13:47.268Z,5.04
2018-12-10T15:15:40.164Z,5.12
2018-12-10T15:16:40.167Z,5.13
2018-12-10T15:18:33.619Z,5.09
2018-12-10T15:19:33.072Z,5.07
2018-12-10T15:21:25.971Z,5.06
2018-12-10T15:22:25.975Z,5.07
2018-12-10T15:24:18.894Z,5.09
2018-12-10T15:25:18.878Z,5.04
2018-12-10T15:27:11.774Z,5.18
2018-12-10T15:28:11.780Z,5.03
2018-12-10T15:30:05.181Z,5.10
2018-12-10T15:31:05.184Z,5.07
2018-12-10T15:32:58.073Z,5.04
2018-12-10T15:33:58.086Z,5.12
2018-12-10T15:35:50.983Z,5.04
2018-12-10T15:36:50.987Z,5.07
2018-12-10T15:38:43.877Z,5.04
2018-12-10T15:39:43.889Z,5.03
2018-12-10T15:41:36.788Z,5.03
2018-12-10T15:42:36.791Z,5.09
2018-12-10T15:44:29.714Z,5.06
2018-12-10T15:45:29.695Z,5.09
2018-12-10T15:47:22.592Z,5.04
2018-12-10T15:48:22.599Z,5.12
2018-12-10T15:50:15.498Z,5.02
2018-12-10T15:51:15.504Z,5.02
2018-12-10T15:53:08.400Z,5.12
2018-12-10T15:54:08.405Z,5.07
2018-12-10T15:56:01.303Z,5.18
2018-12-10T15:57:01.308Z,5.18
2018-12-10T15:58:54.201Z,5.10
2018-12-10T15:59:54.220Z,5.12
2018-12-10T16:01:47.113Z,5.12
2018-12-10T16:02:47.117Z,5.06
2018-12-10T16:04:40.034Z,5.07
2018-12-10T16:05:40.020Z,5.10
2018-12-10T16:07:33.222Z,5.09
2018-12-10T16:08:32.923Z,5.09
2018-12-10T16:10:25.822Z,5.06
2018-12-10T16:11:25.846Z,5.15
2018-12-10T16:13:18.717Z,5.10
2018-12-10T16:14:18.728Z,5.18
2018-12-10T16:16:11.628Z,5.09
2018-12-10T16:17:11.632Z,5.17
2018-12-10T16:19:04.523Z,5.09
2018-12-10T16:20:04.536Z,5.21
2018-12-10T16:21:57.439Z,5.24
2018-12-10T16:22:57.439Z,5.18
2018-12-10T16:24:50.341Z,5.17
2018-12-10T16:25:50.342Z,5.18
2018-12-10T16:27:43.233Z,5.20
2018-12-10T16:28:43.244Z,5.20
2018-12-10T16:30:36.145Z,5.24
2018-12-10T16:31:36.147Z,5.25
2018-12-10T16:33:29.040Z,5.33
2018-12-10T16:34:29.049Z,5.25
2018-12-10T16:36:21.951Z,5.40
2018-12-10T16:37:21.954Z,5.40
2018-12-10T16:39:14.847Z,5.42
2018-12-10T16:40:14.858Z,5.53
2018-12-10T16:42:07.760Z,5.49
2018-12-10T16:43:07.761Z,5.49
2018-12-10T16:45:00.700Z,5.57
2018-12-10T16:46:00.665Z,5.49
2018-12-10T16:47:53.557Z,5.72
2018-12-10T16:48:53.569Z,5.65
2018-12-10T16:50:46.470Z,5.76
2018-12-10T16:51:46.473Z,5.68
2018-12-10T16:53:39.502Z,5.78
2018-12-10T16:54:39.376Z,5.81
2018-12-10T16:56:32.275Z,5.74
2018-12-10T16:57:32.278Z,5.71
2018-12-10T16:59:25.172Z,5.79
2018-12-10T17:00:25.183Z,5.78
2018-12-10T17:02:18.142Z,5.75
2018-12-10T17:03:18.086Z,5.74
2018-12-10T17:05:10.985Z,5.76
2018-12-10T17:06:10.999Z,5.78
2018-12-10T17:08:04.448Z,5.75
2018-12-10T17:09:04.398Z,5.79
2018-12-10T17:10:57.298Z,5.78
2018-12-10T17:11:57.300Z,5.75
2018-12-10T17:13:50.194Z,5.75
2018-12-10T17:14:50.204Z,5.72
2018-12-10T17:16:43.109Z,5.72
2018-12-10T17:17:43.133Z,5.75
2018-12-10T17:19:36.004Z,5.63
2018-12-10T17:20:36.016Z,5.60
2018-12-10T17:22:28.916Z,5.67
2018-12-10T17:23:28.918Z,5.53
2018-12-10T17:25:21.863Z,5.49
2018-12-10T17:26:21.821Z,5.49
2018-12-10T17:28:14.713Z,5.42
2018-12-10T17:29:14.727Z,5.58
2018-12-10T17:31:07.624Z,5.49
2018-12-10T17:32:07.627Z,5.49
2018-12-10T17:34:00.523Z,5.39
2018-12-10T17:35:00.532Z,5.49
2018-12-10T17:36:53.437Z,5.45
2018-12-10T17:37:53.436Z,5.45
2018-12-10T17:39:46.331Z,5.36
2018-12-10T17:40:46.339Z,5.40
2018-12-10T17:42:39.240Z,5.39
2018-12-10T17:43:39.243Z,5.42
2018-12-10T17:45:32.273Z,5.43
2018-12-10T17:46:32.144Z,5.46
2018-12-10T17:48:25.036Z,5.49
2018-12-10T17:49:25.038Z,5.46
2018-12-10T17:51:17.954Z,5.45
2018-12-10T17:52:17.949Z,5.48
2018-12-10T17:54:10.845Z,5.49
2018-12-10T17:55:10.856Z,5.42
2018-12-10T17:57:03.756Z,5.56
2018-12-10T17:58:03.775Z,5.60
2018-12-10T17:59:57.144Z,5.64
2018-12-10T18:00:57.157Z,5.60
2018-12-10T18:02:50.057Z,5.67
2018-12-10T18:03:50.075Z,5.72
2018-12-10T18:05:43.006Z,5.63
2018-12-10T18:06:42.977Z,5.74
2018-12-10T18:08:35.858Z,5.75
2018-12-10T18:09:35.869Z,5.71
2018-12-10T18:11:28.793Z,5.78
2018-12-10T18:12:28.774Z,5.60
2018-12-10T18:14:21.730Z,5.71
2018-12-10T18:15:21.681Z,5.68
2018-12-10T18:17:14.593Z,5.78
2018-12-10T18:18:14.594Z,5.78
2018-12-10T18:20:08.487Z,5.75
2018-12-10T18:21:08.515Z,5.75
2018-12-10T18:23:01.407Z,5.78
2018-12-10T18:24:01.434Z,5.82
2018-12-10T18:25:54.358Z,5.82
2018-12-10T18:26:54.315Z,5.85
2018-12-10T18:28:47.217Z,5.79
2018-12-10T18:29:47.220Z,5.91
2018-12-10T18:31:40.264Z,5.85
2018-12-10T18:32:40.269Z,5.86
2018-12-10T18:34:33.168Z,5.75
2018-12-10T18:35:33.176Z,5.79
2018-12-10T18:37:26.080Z,5.85
2018-12-10T18:38:26.083Z,5.68
2018-12-10T18:40:18.977Z,5.75
2018-12-10T18:41:19.015Z,5.81
2018-12-10T18:43:11.889Z,5.82
2018-12-10T18:44:11.891Z,5.89
2018-12-10T18:46:04.888Z,5.78
2018-12-10T18:47:04.795Z,5.75
2018-12-10T18:48:58.180Z,5.90
2018-12-10T18:49:58.193Z,5.85
2018-12-10T18:51:51.129Z,5.86
2018-12-10T18:52:51.129Z,5.78
2018-12-10T18:54:44.026Z,5.93
2018-12-10T18:55:44.067Z,5.82
2018-12-10T18:57:36.937Z,5.90
2018-12-10T18:58:37.044Z,5.74
2018-12-10T19:00:29.833Z,5.86
2018-12-10T19:01:29.845Z,5.86
2018-12-10T19:03:22.744Z,5.86
2018-12-10T19:04:22.749Z,5.83
2018-12-10T19:06:15.650Z,5.81
2018-12-10T19:07:15.652Z,5.74
2018-12-10T19:09:08.545Z,5.79
2018-12-10T19:10:08.558Z,5.79